createdAt,value
2022-10-16T00:01:09.823Z,137.13
2022-10-16T00:03:37.329Z,141.47
2022-10-16T00:06:05.864Z,136.33
2022-10-16T00:08:33.799Z,142.03
2022-10-16T00:11:02.528Z,140.90
2022-10-16T00:13:30.046Z,141.00
2022-10-16T00:15:59.796Z,145.13
2022-10-16T00:18:27.723Z,143.67
2022-10-16T00:23:24.010Z,141.83
2022-10-16T00:25:58.685Z,142.03
2022-10-16T00:28:26.850Z,145.47
2022-10-16T00:30:54.803Z,142.17
2022-10-16T00:33:24.237Z,133.63
2022-10-16T00:35:52.056Z,140.50
2022-10-16T00:38:19.635Z,142.33
2022-10-16T00:40:47.144Z,145.33
2022-10-16T00:43:16.325Z,143.03
2022-10-16T00:45:44.056Z,139.33
2022-10-16T00:48:16.000Z,145.43
2022-10-16T00:50:44.956Z,144.13
2022-10-16T00:53:13.121Z,142.23
2022-10-16T00:55:42.499Z,142.33
2022-10-16T00:58:10.501Z,143.57
2022-10-16T01:00:38.184Z,145.87
2022-10-16T01:03:25.459Z,147.03
2022-10-16T01:06:02.515Z,146.43
2022-10-16T01:08:36.275Z,148.80
2022-10-16T01:11:07.588Z,139.90
2022-10-16T01:13:39.240Z,146.03
2022-10-16T01:16:09.086Z,148.50
2022-10-16T01:18:47.504Z,150.33
2022-10-16T01:21:20.708Z,151.30
2022-10-16T01:24:04.172Z,151.07
2022-10-16T01:26:39.820Z,147.17
2022-10-16T01:29:11.889Z,149.87
2022-10-16T01:31:42.131Z,146.13
2022-10-16T01:34:16.113Z,149.23
2022-10-16T01:36:47.977Z,150.07
2022-10-16T01:39:16.328Z,139.23
2022-10-16T01:41:47.559Z,144.53
2022-10-16T01:44:20.889Z,152.07
2022-10-16T01:46:50.728Z,150.60
2022-10-16T01:49:19.948Z,156.33
2022-10-16T01:51:49.875Z,145.57
2022-10-16T01:54:19.947Z,147.73
2022-10-16T01:56:48.291Z,147.07
2022-10-16T01:59:18.991Z,149.53
2022-10-16T02:01:48.938Z,146.97
2022-10-16T02:04:19.991Z,149.87
2022-10-16T02:06:47.585Z,145.87
2022-10-16T02:09:16.684Z,145.97
2022-10-16T02:11:44.514Z,150.63
2022-10-16T02:14:12.031Z,144.20
2022-10-16T02:16:42.523Z,149.53
2022-10-16T02:19:10.540Z,151.97
2022-10-16T02:21:42.161Z,151.57
2022-10-16T02:24:13.887Z,151.97
2022-10-16T02:26:45.824Z,147.03
2022-10-16T02:29:16.437Z,146.83
2022-10-16T02:31:48.473Z,153.83
2022-10-16T02:34:16.885Z,152.50
2022-10-16T02:36:45.184Z,149.43
2022-10-16T02:39:12.807Z,150.23
2022-10-16T02:41:40.528Z,155.47
2022-10-16T02:44:08.034Z,150.13
2022-10-16T02:46:35.671Z,151.10
2022-10-16T02:49:04.685Z,151.87
2022-10-16T02:51:32.174Z,153.90
2022-10-16T02:53:59.719Z,153.27
2022-10-16T02:56:27.200Z,151.93
2022-10-16T02:58:54.718Z,152.23
2022-10-16T03:01:22.253Z,159.93
2022-10-16T03:03:49.894Z,151.73
2022-10-16T03:06:18.773Z,147.87
2022-10-16T03:08:46.292Z,159.83
2022-10-16T03:11:13.805Z,141.60
2022-10-16T03:13:41.302Z,151.73
2022-10-16T03:16:08.971Z,151.77
2022-10-16T03:18:36.486Z,152.10
2022-10-16T03:21:04.084Z,153.10
2022-10-16T03:23:33.098Z,152.17
2022-10-16T03:26:00.815Z,149.47
2022-10-16T03:28:28.328Z,153.07
2022-10-16T03:30:55.903Z,149.60
2022-10-16T03:33:23.381Z,156.90
2022-10-16T03:35:54.881Z,148.63
2022-10-16T03:38:22.908Z,149.77
2022-10-16T03:40:51.771Z,173.67
2022-10-16T03:43:19.348Z,154.87
2022-10-16T03:45:46.870Z,148.37
2022-10-16T03:48:15.439Z,152.23
2022-10-16T03:50:43.272Z,150.00
2022-10-16T03:53:10.767Z,148.97
2022-10-16T03:55:38.659Z,143.33
2022-10-16T03:58:07.567Z,154.37
2022-10-16T04:00:35.314Z,154.23
2022-10-16T04:03:02.888Z,154.47
2022-10-16T04:05:30.409Z,154.47
2022-10-16T04:07:57.887Z,142.23
2022-10-16T04:10:25.470Z,148.30
2022-10-16T04:12:55.469Z,154.23
2022-10-16T04:15:24.872Z,154.13
2022-10-16T04:17:53.043Z,155.70
2022-10-16T04:20:20.690Z,162.17
2022-10-16T04:22:48.183Z,143.37
2022-10-16T04:25:15.839Z,148.60
2022-10-16T04:27:45.958Z,152.07
2022-10-16T04:30:14.031Z,148.63
2022-10-16T04:32:42.965Z,154.73
2022-10-16T04:35:10.835Z,151.50
2022-10-16T04:37:38.371Z,154.60
2022-10-16T04:40:06.891Z,158.10
2022-10-16T04:42:34.424Z,153.33
2022-10-16T04:45:01.918Z,153.50
2022-10-16T04:47:29.639Z,158.47
2022-10-16T04:49:59.941Z,155.47
2022-10-16T04:52:27.614Z,153.80
2022-10-16T04:54:56.452Z,149.33
2022-10-16T04:57:24.291Z,155.30
2022-10-16T04:59:52.045Z,151.97
2022-10-16T05:02:19.602Z,143.17
2022-10-16T05:04:47.151Z,150.97
2022-10-16T05:07:16.391Z,150.63
2022-10-16T05:09:43.942Z,150.97
2022-10-16T05:12:11.469Z,142.00
2022-10-16T05:14:38.975Z,141.03
2022-10-16T05:17:06.567Z,145.03
2022-10-16T05:19:34.216Z,151.33
2022-10-16T05:22:01.712Z,143.80
2022-10-16T05:24:30.586Z,155.53
2022-10-16T05:26:58.202Z,144.60
2022-10-16T05:29:26.030Z,145.57
2022-10-16T05:31:54.563Z,152.93
2022-10-16T05:34:22.953Z,153.80
2022-10-16T05:36:50.992Z,146.90
2022-10-16T05:39:18.557Z,123.60
2022-10-16T05:41:47.442Z,128.77
2022-10-16T05:44:14.957Z,138.00
2022-10-16T05:46:42.470Z,135.33
2022-10-16T05:49:09.976Z,126.00
2022-10-16T05:51:37.483Z,133.73
2022-10-16T05:54:04.996Z,136.27
2022-10-16T05:56:32.572Z,143.40
2022-10-16T05:59:01.410Z,141.10
2022-10-16T06:01:29.013Z,147.70
2022-10-16T06:03:56.634Z,139.63
2022-10-16T06:06:26.666Z,140.37
2022-10-16T06:08:55.158Z,139.50
2022-10-16T06:11:25.615Z,144.57
2022-10-16T06:13:53.552Z,142.73
2022-10-16T06:16:24.825Z,141.47
2022-10-16T06:18:53.455Z,131.17
2022-10-16T06:21:22.799Z,144.27
2022-10-16T06:23:50.843Z,137.70
2022-10-16T06:26:20.780Z,142.90
2022-10-16T06:28:48.717Z,145.37
2022-10-16T06:31:16.594Z,137.77
2022-10-16T06:33:46.497Z,141.80
2022-10-16T06:36:15.463Z,141.13
2022-10-16T06:38:43.668Z,141.87
2022-10-16T06:41:13.192Z,141.20
2022-10-16T06:43:40.974Z,136.37
2022-10-16T06:46:09.785Z,134.67
2022-10-16T06:48:38.694Z,142.20
2022-10-16T06:51:10.649Z,141.10
2022-10-16T06:53:54.592Z,140.60
2022-10-16T06:56:28.419Z,142.47
2022-10-16T06:58:57.071Z,139.80
2022-10-16T07:01:25.928Z,148.50
2022-10-16T07:03:54.298Z,139.23
2022-10-16T07:06:25.093Z,141.67
2022-10-16T07:08:53.400Z,142.33
2022-10-16T07:11:22.628Z,135.83
2022-10-16T07:13:54.513Z,143.23
2022-10-16T07:16:25.099Z,140.67
2022-10-16T07:18:58.654Z,139.60
2022-10-16T07:21:29.962Z,144.43
2022-10-16T07:23:59.492Z,139.03
2022-10-16T07:26:27.837Z,142.47
2022-10-16T07:28:55.836Z,143.07
2022-10-16T07:31:24.108Z,142.13
2022-10-16T07:33:52.574Z,147.43
2022-10-16T07:36:21.064Z,139.20
2022-10-16T07:38:51.862Z,149.53
2022-10-16T07:41:21.986Z,148.50
2022-10-16T07:43:49.776Z,145.53
2022-10-16T07:46:18.388Z,144.00
2022-10-16T07:48:48.066Z,154.50
2022-10-16T07:51:17.248Z,148.73
2022-10-16T07:53:44.789Z,147.20
2022-10-16T07:56:14.261Z,149.90
2022-10-16T07:58:43.099Z,153.40
2022-10-16T08:01:11.976Z,149.13
2022-10-16T08:03:39.728Z,149.70
2022-10-16T08:06:07.327Z,151.33
2022-10-16T08:08:34.880Z,150.67
2022-10-16T08:11:04.708Z,150.23
2022-10-16T08:13:33.916Z,153.17
2022-10-16T08:16:02.156Z,154.13
2022-10-16T18:28:59.391Z,160.13
2022-10-16T18:31:27.498Z,155.50
2022-10-16T18:33:56.231Z,144.57
2022-10-16T18:36:26.656Z,149.83
2022-10-16T18:38:54.937Z,147.67
2022-10-16T18:41:22.941Z,145.33
2022-10-16T18:43:50.494Z,144.27
2022-10-16T18:46:19.833Z,146.27
2022-10-16T18:48:48.190Z,146.77
2022-10-16T18:51:18.296Z,132.20
2022-10-16T18:53:48.317Z,143.13
2022-10-16T18:56:17.206Z,144.03
2022-10-16T18:58:46.008Z,140.43
2022-10-16T19:01:16.372Z,143.57
2022-10-16T19:03:44.822Z,135.83
2022-10-16T19:06:14.309Z,139.37
2022-10-16T19:08:44.034Z,148.93
2022-10-16T19:11:15.851Z,143.47
2022-10-16T19:13:43.600Z,141.37
2022-10-16T19:16:21.223Z,143.73
2022-10-16T19:18:49.238Z,159.27
2022-10-16T19:21:17.210Z,130.00
2022-10-16T19:23:44.830Z,144.37
2022-10-16T19:26:15.839Z,147.57
2022-10-16T19:28:44.275Z,153.87
2022-10-16T19:31:13.853Z,153.17
2022-10-16T19:33:42.335Z,154.83
2022-10-16T19:36:11.285Z,156.17
2022-10-16T19:38:39.052Z,162.80
2022-10-16T19:41:08.240Z,159.87
2022-10-16T19:43:37.139Z,164.57
2022-10-16T19:46:05.655Z,157.67
2022-10-16T19:48:33.481Z,161.97
2022-10-16T19:51:01.200Z,166.67
2022-10-16T19:53:29.408Z,164.53
2022-10-16T19:55:57.589Z,161.43
2022-10-16T19:58:25.510Z,164.97
2022-10-16T20:00:55.056Z,162.80
2022-10-16T20:03:22.654Z,170.27
2022-10-16T20:05:53.971Z,165.63
2022-10-16T20:08:21.881Z,164.47
2022-10-16T20:10:50.504Z,171.43
2022-10-16T20:13:18.271Z,171.00
2022-10-16T20:15:45.864Z,174.70
2022-10-16T20:18:15.574Z,165.47
2022-10-16T20:20:44.868Z,166.87
2022-10-16T20:23:12.735Z,167.27
2022-10-16T20:25:41.852Z,166.33
2022-10-16T20:28:10.554Z,168.97
2022-10-16T20:30:39.603Z,166.40
2022-10-16T20:33:08.282Z,166.63
2022-10-16T20:35:38.619Z,169.90
2022-10-16T20:38:06.434Z,166.43
2022-10-16T20:40:35.296Z,165.50
2022-10-16T20:43:03.062Z,169.43
2022-10-16T20:45:30.915Z,170.60
2022-10-16T20:47:58.798Z,165.23
2022-10-16T20:50:29.438Z,171.13
2022-10-16T20:52:58.441Z,165.13
2022-10-16T20:55:26.042Z,173.33
2022-10-16T20:57:53.807Z,167.63
2022-10-16T21:00:21.558Z,164.57
2022-10-16T21:02:51.231Z,168.90
2022-10-16T21:05:19.415Z,170.30
2022-10-16T21:07:47.153Z,172.17
2022-10-16T21:10:16.403Z,170.20
2022-10-16T21:12:43.923Z,169.30
2022-10-16T21:15:15.453Z,168.97
2022-10-16T21:17:43.357Z,175.00
2022-10-16T21:20:11.172Z,154.73
2022-10-16T21:22:38.752Z,165.77
2022-10-16T21:25:07.224Z,169.43
2022-10-16T21:27:38.871Z,167.63
2022-10-16T21:30:08.004Z,168.70
2022-10-16T21:32:36.129Z,169.73
2022-10-16T21:35:04.008Z,169.03
2022-10-16T21:37:31.545Z,158.80
2022-10-16T21:39:59.350Z,159.53
2022-10-16T21:42:27.055Z,164.03
2022-10-16T21:44:56.247Z,159.07
2022-10-16T21:47:23.795Z,163.37
2022-10-16T21:49:51.467Z,166.37
2022-10-16T21:52:18.959Z,165.43
2022-10-16T21:54:46.496Z,165.47
2022-10-16T21:57:14.026Z,164.33
2022-10-16T21:59:41.504Z,164.53
2022-10-16T22:02:10.470Z,162.47
2022-10-16T22:04:38.096Z,167.83
2022-10-16T22:07:05.582Z,158.43
2022-10-16T22:09:33.108Z,169.70
2022-10-16T22:12:00.625Z,160.83
2022-10-16T22:14:28.151Z,162.67
2022-10-16T22:16:55.737Z,165.60
2022-10-16T22:19:24.652Z,171.93
2022-10-16T22:21:57.113Z,167.50
2022-10-16T22:24:25.100Z,167.00
2022-10-16T22:26:52.638Z,159.93
2022-10-16T22:29:20.356Z,157.63
2022-10-16T22:31:52.197Z,165.10
2022-10-16T22:34:19.986Z,157.37
2022-10-16T22:36:50.767Z,156.73
2022-10-16T22:39:18.941Z,171.33
2022-10-16T22:41:46.452Z,166.47
2022-10-16T22:44:14.017Z,160.80
2022-10-16T22:46:41.706Z,167.37
2022-10-16T22:49:09.243Z,158.77
2022-10-16T22:51:36.894Z,157.93
2022-10-16T22:54:05.888Z,160.47
2022-10-16T22:56:33.412Z,173.93
2022-10-16T22:59:00.915Z,167.30
2022-10-16T23:01:30.243Z,163.83
2022-10-16T23:03:58.087Z,162.70
2022-10-16T23:06:25.911Z,161.27
2022-10-16T23:08:53.638Z,165.90
2022-10-16T23:11:22.869Z,172.03
2022-10-16T23:13:50.697Z,165.70
2022-10-16T23:16:20.394Z,166.87
2022-10-16T23:18:49.143Z,169.50
2022-10-16T23:21:18.856Z,161.87
2022-10-16T23:23:46.703Z,161.17
2022-10-16T23:26:15.631Z,168.20
2022-10-16T23:28:44.907Z,166.87
2022-10-16T23:31:13.088Z,163.27
2022-10-16T23:33:40.978Z,163.57
2022-10-16T23:36:10.018Z,159.63
2022-10-16T23:38:37.836Z,171.70
2022-10-16T23:41:05.759Z,167.03
2022-10-16T23:43:33.266Z,164.57
2022-10-16T23:46:02.444Z,162.67
2022-10-16T23:48:30.376Z,173.87
2022-10-16T23:50:58.003Z,165.10
2022-10-16T23:53:25.595Z,165.30
2022-10-16T23:55:53.423Z,163.93
2022-10-16T23:58:21.075Z,170.10
